Shawano, WI (54166)

2:59 AM CDT on August 29, 2015 (GMT -0500)
Shawano | | Change Station
CLOSE
Current Station
Airport
Location: Shawano,
Elevation: 814 ft
Nearby Weather Stations

Elev 814 ft 44.79 °N, 88.56 °W | Updated 24 minutes ago

Light Rain
Light Rain
59 °F
Feels Like 59 °F
N
0
Wind Variable Wind from North

Today
High -- | Low -- °F
--% Chance of Precip.
Yesterday
High -- | Low -- °F
Precip. -- in
6:12 AM 7:36 PM
Full, 100% visible
Pressure 30.10 in
Visibility 10.0 miles
Clouds Scattered Clouds 3800 ft
Mostly Cloudy 5500 ft
Overcast 6500 ft
Dew Point 56 °F
Humidity 90%
Rainfall 0.00 in
Snow Depth Not available.
UV 0 out of 12
Pollen 6.10 out of 12
Air Quality Not available.
Flu Activity Not available.
METAR KEZS 290735Z AUTO 00000KT 10SM -RA SCT038 BKN055 OVC065 15/14 A3010 RMK AO2 T01510135
Pressure 30.10 in
Visibility 10.0 miles
Clouds Scattered Clouds 3800 ft
Mostly Cloudy 5500 ft
Overcast 6500 ft
Dew Point 56 °F
Humidity 90%
Rainfall 0.00 in
Snow Depth Not available.
UV 0 out of 12
Pollen 6.10 out of 12
Air Quality Not available.
Flu Activity Not available.
METAR KEZS 290735Z AUTO 00000KT 10SM -RA SCT038 BKN055 OVC065 15/14 A3010 RMK AO2 T01510135

10-Day Weather Forecast

×

Almanac

Astronomy

Aug. 29, 2015 Rise Set
Actual Time
Civil Twilight
Nautical Twilight
Astronomical Twilight
Moon
Length of Visible Light
Length of Day
Tomorrow will be .
, % of the Moon is Illuminated

Today's Extremes

State Highs State Lows

Community

WunderPhotos

Upload Photos

1,850,634 photos uploaded!

WunderBlogs® & News

Nearby

Air Quality

  Air Quality AQ Index Pollutant
Not available.

Snow Depth

Station Depth Elevation

Earthquake Activity

City Distance Mag. Time & Date
Minimum magnitude displayed is 2.5.

Coastal Water Temperatures

Place Temperature

Stations

Nearby Weather Stations

Station Location Temp. Windchill Dew Point Humidity Wind Precip. Elev Updated Type